Terminal Aerodrome Forecast
Issued by NWS

Home | Current Version | Previous Version | Text Only | Print | Product List | Glossary On
Versions: 1 2 3 4 5 6 7 8 9 10 11 12 13 14 15
000
FTUS43 KEAX 230500
TAFSTJ
TAF
KSTJ 230520Z 2306/2406 12006KT P6SM SCT100
     FM231400 15017G24KT P6SM VCSH BKN100
     FM231700 16020G28KT P6SM SCT100=

USA.gov is the U.S. government's official web portal to all federal, state and local government web resources and services.